Latest Coastal Weather Observations for King Island Airport

IDT60701

Issued at 11:11 am EST Sunday 26 April 2015 (issued every 10 minutes, with the page automatically refreshed every 10 minutes)

About coastal observations | Map of coastal stations | Coastal observations for TAS | Marine services | Other Formats
Station Details ID: 098017 Name: KING ISLAND AIRPORT Lat: -39.88 Lon: 143.88 Height: 37.0 m
Data from the previous 72 hours. | See also: Recent months at King Island Airport
Date/Time
EST
Temp

°C
Wind Pressure Rain
since 9am
mm
Weather Cloud Vis
km
Sea
Height
m
Swell
Dir
 
Speed
knots
Gust
knots
hPa Trend Height
m
Period
s
Dir
26/11:00am 12.6 WSW 16 23 1018.1 - 0.0 - Partly cloudy 10 - - - -
26/10:31am 13.1 SW 19 30 1018.1 - 0.0 - Partly cloudy 10 - - - -
26/10:30am 13.2 SW 18 26 1018.1 - 0.0 - Partly cloudy 10 - - - -
26/10:03am 12.3 WSW 17 27 1018.1 - 0.0 - Partly cloudy 10 - - - -
26/10:00am 12.1 SW 19 27 1018.1 - 0.0 - Partly cloudy 10 - - - -
26/09:40am 12.8 SW 16 26 1018.1 - 0.0 - Partly cloudy 10 - - - -
26/09:30am 13.2 SW 15 19 1018.0 - 0.0 - Partly cloudy - - - - -
26/09:00am 11.8 SW 14 18 1018.0 - 0.0 Drizzle Partly cloudy 10 - - - -
26/08:30am 10.6 SW 11 16 1017.9 - 0.0 - Partly cloudy 10 - - - -
26/08:00am 11.5 SW 16 24 1017.7 - 0.0 - Partly cloudy 10 - - - -
26/07:30am 10.7 SW 13 19 1017.4 - 0.0 - Partly cloudy 10 - - - -
26/07:00am 11.0 SW 15 22 1017.0 - 0.0 - Partly cloudy 10 - - - -
26/06:30am 11.6 SSW 14 20 1016.8 - 0.0 - Partly cloudy 10 - - - -
26/06:00am 11.2 SW 12 18 1016.5 - 0.0 - Cloudy 10 - - - -
26/05:30am 11.1 SW 14 21 1016.4 - 0.0 - Partly cloudy 10 - - - -
26/05:00am 11.0 SW 19 25 1016.4 - 0.0 - Cloudy 10 - - - -
26/04:30am 11.1 SW 14 19 1016.1 - 0.0 - Cloudy 10 - - - -
26/04:00am 11.5 SSW 16 22 1016.0 - 0.0 - Cloudy 10 - - - -
26/03:30am 11.1 SSW 18 26 1015.8 - 0.0 - Cloudy 10 - - - -
26/03:00am 11.4 SW 14 18 1015.8 - 0.0 - Cloudy 10 - - - -
26/02:30am 11.4 SSW 14 18 1015.8 - 0.0 - Partly cloudy 10 - - - -
26/02:00am 11.4 SSW 15 20 1015.7 - 0.0 - Partly cloudy 10 - - - -
26/01:30am 11.5 SSW 13 19 1015.7 - 0.0 - Partly cloudy 10 - - - -
26/01:00am 11.3 SSW 14 20 1015.6 - 0.0 - Partly cloudy 10 - - - -
26/12:30am 11.4 SW 14 18 1015.4 - 0.0 - Partly cloudy 10 - - - -
26/12:00am 11.8 SSW 14 20 1015.3 - 0.0 - Cloudy 10 - - - -
 
Date/Time
EST
Temp

°C
Wind Pressure Rain
since 9am
mm
Weather Cloud Vis
km
Sea
Height
m
Swell
Dir
 
Speed
knots
Gust
knots
hPa Trend Height
m
Period
s
Dir
25/11:30pm 11.6 SSW 14 18 1015.2 - 0.0 - Partly cloudy 10 - - - -
25/11:00pm 11.8 S 11 17 1015.3 - 0.0 - Partly cloudy 10 - - - -
25/10:30pm 11.7 S 10 16 1015.3 - 0.0 - Partly cloudy 10 - - - -
25/10:00pm 11.9 SSW 14 19 1015.3 - 0.0 - Partly cloudy 10 - - - -
25/09:30pm 11.9 SSW 13 20 1015.1 - 0.0 - Cloudy 10 - - - -
25/09:00pm 11.6 SSW 14 20 1014.8 - 0.0 - Partly cloudy 10 - - - -
25/08:30pm 11.7 S 10 15 1014.5 - 0.0 - Cloudy 10 - - - -
25/08:00pm 12.1 S 11 17 1014.2 - 0.0 - Partly cloudy 10 - - - -
25/07:30pm 11.9 SSW 12 17 1014.1 - 0.0 - Partly cloudy 10 - - - -
25/07:00pm 11.9 S 11 17 1013.7 - 0.0 - Partly cloudy 10 - - - -
25/06:30pm 12.0 SSW 12 18 1013.2 - 0.0 - Partly cloudy 10 - - - -
25/06:00pm 12.2 SSW 15 21 1012.8 - 0.0 - Cloudy 10 - - - -
25/05:30pm 12.3 SSW 14 19 1012.6 - 0.0 - Cloudy 10 - - - -
25/05:00pm 12.5 SSW 12 17 1012.3 - 0.0 - Cloudy 10 - - - -
25/04:30pm 12.5 S 14 20 1012.0 - 0.0 - Cloudy 10 - - - -
25/04:00pm 12.7 S 14 23 1011.8 - 0.0 - Cloudy 10 - - - -
25/03:30pm 12.9 SSW 16 23 1011.6 - 0.0 - Cloudy 10 - - - -
25/03:00pm 13.1 S 15 26 1011.2 - 0.0 - Cloudy 10 - - - -
25/02:58pm 13.1 S 16 26 1011.2 - 0.0 - Partly cloudy 10 - - - -
25/02:30pm 13.3 S 15 23 1010.9 - 0.0 - Partly cloudy 10 - - - -
25/02:21pm 13.3 SSW 16 26 1010.8 - 0.0 - Partly cloudy 10 - - - -
25/02:00pm 14.1 SSW 18 27 1010.5 - 0.0 - Partly cloudy 10 - - - -
25/01:35pm 13.9 S 17 27 1010.4 - 0.0 - Partly cloudy 10 - - - -
25/01:30pm 13.9 SSW 17 26 1010.3 - 0.0 - Partly cloudy 10 - - - -
25/01:14pm 14.2 S 15 25 1010.2 - 0.0 - Partly cloudy 10 - - - -
25/01:00pm 14.4 S 17 23 1010.2 - 0.0 - Partly cloudy 10 - - - -
25/12:30pm 13.5 S 14 20 1010.3 - 0.0 - Partly cloudy 10 - - - -
25/12:00pm 14.2 S 14 21 1010.2 - 0.0 - Cloudy 10 - - - -
25/11:36am 13.9 SSE 15 25 1010.1 - 0.0 - Partly cloudy 10 - - - -
25/11:30am 14.7 SSE 16 22 1010.2 - 0.0 - Partly cloudy 10 - - - -
25/11:00am 14.3 SSE 14 21 1009.8 - 0.0 - Partly cloudy 10 - - - -
25/10:30am 14.3 S 11 17 1009.7 - 0.0 - Partly cloudy 10 - - - -
25/10:00am 13.9 S 10 16 1009.7 - 0.0 - Cloudy 10 - - - -
25/09:30am 13.6 S 8 13 1009.6 - 0.0 - Partly cloudy 10 - - - -
25/09:00am 12.7 S 7 10 1009.5 - 4.8 - Cloudy 10 - - - -
25/08:30am 12.1 SSE 6 9 1009.2 - 4.8 - Partly cloudy 10 - - - -
25/08:19am 12.1 SSE 7 9 1009.0 - 4.8 - Partly cloudy 10 - - - -
25/08:09am 12.1 SSE 8 10 1008.9 - 4.8 - Partly cloudy 5 - - - -
25/08:00am 12.1 SSE 6 8 1008.9 - 4.8 - Partly cloudy 10 - - - -
25/07:30am 12.1 SSE 7 10 1008.5 - 4.8 - Partly cloudy 10 - - - -
25/07:00am 12.1 SSW 5 6 1008.1 - 4.8 - Partly cloudy 10 - - - -
25/06:30am 12.0 S 3 5 1007.8 - 4.8 - Partly cloudy 10 - - - -
25/06:00am 12.0 SSE 4 6 1007.2 - 4.8 - Cloudy 10 - - - -
25/05:30am 12.0 S 5 6 1006.9 - 4.8 - Partly cloudy 10 - - - -
25/05:00am 11.1 NNE 1 3 1006.8 - 4.8 - Partly cloudy 10 - - - -
25/04:30am 11.3 ESE 2 5 1006.5 - 4.8 - Partly cloudy 10 - - - -
25/04:00am 10.5 ENE 3 4 1006.3 - 4.8 - Partly cloudy 10 - - - -
25/03:30am 11.1 CALM 0 5 1006.2 - 4.8 - Partly cloudy 10 - - - -
25/03:00am 11.0 CALM 0 0 1006.1 - 4.8 - Cloudy 10 - - - -
25/02:30am 11.1 NE 2 4 1006.1 - 4.8 - Partly cloudy 10 - - - -
25/02:00am 11.5 SSE 4 5 1006.0 - 4.8 - Cloudy 10 - - - -
25/01:30am 11.5 SSE 7 8 1005.9 - 4.8 - - 10 - - - -
25/01:00am 10.8 SSE 5 7 1005.8 - 4.8 - - 10 - - - -
25/12:30am 11.3 SSE 5 6 1005.8 - 4.8 - Partly cloudy 10 - - - -
25/12:00am 11.7 SE 5 6 1005.7 - 4.8 Rain Cloudy 10 - - - -
 
Date/Time
EST
Temp

°C
Wind Pressure Rain
since 9am
mm
Weather Cloud Vis
km
Sea
Height
m
Swell
Dir
 
Speed
knots
Gust
knots
hPa Trend Height
m
Period
s
Dir
24/11:30pm 12.2 SSE 7 8 1005.7 - 4.4 - Partly cloudy 10 - - - -
24/11:00pm 12.5 SSE 6 7 1005.7 - 4.4 - Partly cloudy 10 - - - -
24/10:30pm 12.7 SSE 5 7 1005.7 - 4.4 - Partly cloudy 10 - - - -
24/10:00pm 12.6 CALM 0 0 1005.6 - 3.6 - Cloudy 8 - - - -
24/09:51pm 12.8 CALM 0 0 1005.7 - 3.2 - Partly cloudy 8 - - - -
24/09:36pm 13.0 CALM 0 0 1005.9 - 2.8 - Partly cloudy 5 - - - -
24/09:30pm 12.9 CALM 0 0 1005.8 - 2.4 - Partly cloudy 8 - - - -
24/09:24pm 12.9 CALM 0 0 1005.7 - 2.4 - Partly cloudy 8 - - - -
24/09:01pm 13.2 CALM 0 0 1005.7 - 1.0 - Partly cloudy 5 - - - -
24/09:00pm 13.2 CALM 0 0 1005.6 - 1.0 Showers Cloudy 6 - - - -
24/08:30pm 13.4 NW 3 4 1005.4 - 0.2 - Partly cloudy 10 - - - -
24/08:00pm 13.4 CALM 0 0 1005.0 - 0.2 - Partly cloudy 10 - - - -
24/07:30pm 13.5 S 3 5 1004.7 - 0.0 - Partly cloudy 10 - - - -
24/07:00pm 13.7 SSE 5 6 1004.5 - 0.0 - Partly cloudy 10 - - - -
24/06:30pm 14.0 SSE 4 4 1004.4 - 0.0 - Partly cloudy 10 - - - -
24/06:00pm 14.4 SSW 4 5 1003.9 - 0.0 - Cloudy 10 - - - -
24/05:30pm 14.6 SSW 6 7 1003.7 - 0.0 - Partly cloudy 10 - - - -
24/05:00pm 14.9 SE 4 6 1003.3 - 0.0 - Partly cloudy 10 - - - -
24/04:30pm 15.1 SE 6 8 1003.0 - 0.0 - Partly cloudy 10 - - - -
24/04:00pm 15.0 SE 7 9 1002.8 - 0.0 - Partly cloudy 10 - - - -
24/03:30pm 15.1 ESE 6 8 1003.2 - 0.0 - Cloudy 10 - - - -
24/03:04pm 15.3 ESE 7 9 1003.0 - 0.0 - Partly cloudy 10 - - - -
24/03:00pm 14.9 SE 8 9 1003.0 - 0.0 - Cloudy 10 - - - -
24/02:52pm 15.1 SE 6 9 1003.0 - 0.0 - Partly cloudy 10 - - - -
24/02:30pm 15.2 SE 5 7 1003.0 - 0.0 - Partly cloudy 10 - - - -
24/02:12pm 15.3 SSE 6 8 1002.9 - 0.0 - Partly cloudy 10 - - - -
24/02:00pm 15.2 SE 7 10 1002.8 - 0.0 - Partly cloudy 10 - - - -
24/01:30pm 16.1 SE 9 13 1002.8 - 0.0 - Partly cloudy 10 - - - -
24/01:00pm 14.9 SE 9 12 1002.8 - 0.0 - Partly cloudy 10 - - - -
24/12:30pm 14.5 SSE 6 8 1003.3 - 0.0 - Cloudy 10 - - - -
24/12:19pm 14.5 SSE 7 9 1003.5 - 0.0 - Partly cloudy 10 - - - -
24/12:16pm 14.4 SSE 7 9 1003.5 - 0.0 - Partly cloudy 10 - - - -
24/12:00pm 14.7 SSE 7 9 1003.7 - 0.0 Showers Cloudy 10 - - - -
24/11:30am 14.3 SSE 7 9 1004.0 - 0.0 - Partly cloudy 10 - - - -
24/11:00am 14.2 SE 8 11 1004.2 - 0.0 - Partly cloudy 10 - - - -
24/10:30am 14.0 SSE 8 10 1004.3 - 0.0 - Cloudy 10 - - - -
24/10:00am 14.1 SSE 8 10 1004.4 - 0.0 - Cloudy 10 - - - -
24/09:30am 13.8 SSE 7 11 1004.5 - 0.0 - Cloudy 10 - - - -
24/09:00am 13.7 SE 7 9 1004.9 - 5.2 - Cloudy 10 - - - -
24/08:30am 13.7 SSE 5 7 1004.9 - 5.2 - Partly cloudy 10 - - - -
24/08:00am 13.4 ESE 7 9 1004.9 - 5.2 - Partly cloudy 10 - - - -
24/07:32am 13.2 SE 7 9 1004.8 - 5.2 - Partly cloudy 10 - - - -
24/07:30am 13.2 SE 7 9 1004.8 - 5.2 - Partly cloudy 10 - - - -
24/07:24am 13.3 ESE 7 10 1004.8 - 5.2 - Partly cloudy 10 - - - -
24/07:00am 13.2 SE 7 8 1004.9 - 5.2 - Partly cloudy 10 - - - -
24/06:38am 13.2 SE 7 10 1005.0 - 5.0 - Partly cloudy 10 - - - -
24/06:30am 13.2 SE 7 8 1005.0 - 5.0 - Partly cloudy 10 - - - -
24/06:00am 13.2 SE 7 8 1005.1 - 5.0 Recent precip. Cloudy - - - - -
24/05:30am 13.3 SSE 6 8 1005.4 - 5.0 - Partly cloudy 5 - - - -
24/05:00am 13.1 S 5 7 1005.7 - 4.6 - Partly cloudy 4 - - - -
24/04:41am 13.0 SSW 5 6 1006.0 - 4.4 - Partly cloudy 3 - - - -
24/04:31am 12.9 SSW 6 6 1006.1 - 4.2 - Cloudy 3 - - - -
24/04:30am 12.9 SSW 6 6 1006.1 - 4.2 - Partly cloudy 3 - - - -
24/04:17am 12.8 SSW 5 6 1006.1 - 4.2 - Partly cloudy 5 - - - -
24/04:00am 12.7 SSW 5 7 1006.3 - 4.0 - Partly cloudy 10 - - - -
24/03:48am 12.6 S 6 8 1006.4 - 4.0 - Partly cloudy 7 - - - -
24/03:45am 12.6 S 6 8 1006.4 - 4.0 - Partly cloudy 7 - - - -
24/03:30am 12.7 S 6 8 1006.6 - 4.0 - Partly cloudy 4 - - - -
24/03:00am 12.8 S 6 9 1007.2 - 3.8 Drizzle Cloudy 3 - - - -
24/02:30am 13.4 SSW 5 6 1007.7 - 3.0 - Partly cloudy 3 - - - -
24/02:02am 13.5 SE 3 4 1008.2 - 2.2 - Partly cloudy 3 - - - -
24/02:00am 13.5 SE 3 4 1008.2 - 2.2 - Partly cloudy 3 - - - -
24/01:50am 13.6 SE 3 5 1008.3 - 2.0 - Partly cloudy 4 - - - -
24/01:30am 13.5 ESE 6 7 1008.5 - 1.8 - Partly cloudy 3 - - - -
24/01:08am 13.7 ESE 5 5 1008.9 - 0.8 - Partly cloudy 3 - - - -
24/01:00am 13.8 ESE 6 9 1009.1 - 0.4 - Partly cloudy 4 - - - -
24/12:46am 13.7 SE 5 7 1009.2 - 0.2 - Partly cloudy 5 - - - -
24/12:30am 13.6 SSE 6 9 1009.5 - 0.0 - Partly cloudy 10 - - - -
24/12:00am 13.4 S 6 7 1009.9 - 0.0 Drizzle Cloudy 10 - - - -
 
Date/Time
EST
Temp

°C
Wind Pressure Rain
since 9am
mm
Weather Cloud Vis
km
Sea
Height
m
Swell
Dir
 
Speed
knots
Gust
knots
hPa Trend Height
m
Period
s
Dir
23/11:30pm 13.5 SSE 5 6 1010.3 - 0.0 - Partly cloudy 10 - - - -
23/11:00pm 13.5 SE 7 8 1010.5 - 0.0 - Partly cloudy 10 - - - -
23/10:30pm 13.5 SE 3 4 1011.3 - 0.0 - Partly cloudy 10 - - - -
23/10:00pm 13.5 SE 5 6 1011.8 - 0.0 - Partly cloudy 10 - - - -
23/09:30pm 13.5 ESE 8 10 1012.0 - 0.0 - Partly cloudy 10 - - - -
23/09:00pm 13.8 ESE 9 11 1012.1 - 0.0 Showers Cloudy 10 - - - -
23/08:30pm 14.0 SE 6 8 1012.7 - 0.0 - Partly cloudy 10 - - - -
23/08:00pm 14.1 ESE 5 6 1013.3 - 0.0 - Partly cloudy 10 - - - -
23/07:30pm 14.3 E 5 7 1013.8 - 0.0 - Partly cloudy 10 - - - -
23/07:00pm 14.4 E 7 8 1014.1 - 0.0 - Cloudy 10 - - - -
23/06:30pm 14.5 E 6 7 1014.5 - 0.0 - Cloudy 10 - - - -
23/06:00pm 14.7 E 7 9 1014.4 - 0.0 - Cloudy 10 - - - -
23/05:30pm 14.9 E 7 9 1014.2 - 0.0 - Cloudy 10 - - - -
23/05:00pm 15.2 E 8 10 1014.3 - 0.0 - Partly cloudy 10 - - - -
23/04:30pm 15.6 E 11 14 1014.3 - 0.0 - Partly cloudy 10 - - - -
23/04:00pm 16.0 E 10 14 1015.1 - 0.0 - Partly cloudy 10 - - - -
23/03:30pm 15.9 E 8 10 1015.4 - 0.0 - Partly cloudy 10 - - - -
23/03:00pm 15.8 E 9 11 1015.8 - 0.0 Drizzle Cloudy 10 - - - -
23/02:30pm 15.5 E 8 12 1016.0 - 0.0 - Partly cloudy 10 - - - -
23/02:00pm 16.3 ESE 9 12 1016.5 - 0.0 - Partly cloudy 10 - - - -
23/01:30pm 16.5 E 10 12 1016.5 - 0.0 - Partly cloudy 10 - - - -
23/01:00pm 16.2 ESE 10 12 1017.1 - 0.0 - Partly cloudy 10 - - - -
23/12:30pm 16.6 SE 8 10 1017.9 - 0.0 - Cloudy 10 - - - -
23/12:00pm 16.4 ESE 9 12 1018.7 - 0.0 - Cloudy 10 - - - -
23/11:30am 16.3 SE 8 10 1019.2 - 0.0 - Cloudy 10 - - - -

Other Formats:

Comma delimited format used in spreadsheet applications
http://www.bom.gov.au/fwo/IDT60701/IDT60701.94850.axf

JavaScript Object Notation format (JSON) in row-major order
http://www.bom.gov.au/fwo/IDT60701/IDT60701.94850.json